Terminal Aerodrome Forecast
Issued by NWS

Home | Current Version | Previous Version | Text Only | Print | Product List | Glossary On
Versions: 1 2 3 4 5 6 7 8 9 10 11 12 13 14 15 16 17 18 19 20
302
FTUS42 KTAE 281018 AAA
TAFVLD
TAF AMD
KVLD 281018Z 2810/2906 25003KT P6SM SKC
      TEMPO 2810/2813 3SM BR SCT002
     FM282000 23006KT 6SM TSRA BKN030CB
     FM282300 21004KT P6SM SCT040 BKN250=

USA.gov is the U.S. government's official web portal to all federal, state and local government web resources and services.